createdAt,value
2023-02-03T00:02:09.440Z,99300.50
2023-02-03T00:04:36.419Z,99319.91
2023-02-03T00:07:03.436Z,99316.91
2023-02-03T00:09:30.745Z,99281.16
2023-02-03T00:11:57.750Z,99247.09
2023-02-03T00:14:24.804Z,99309.59
2023-02-03T00:16:51.860Z,99281.63
2023-02-03T00:19:18.809Z,99307.31
2023-02-03T00:21:45.761Z,99318.16
2023-02-03T00:24:12.818Z,99286.94
2023-02-03T00:26:43.853Z,99313.56
2023-02-03T00:29:11.252Z,99308.31
2023-02-03T00:31:38.547Z,99309.53
2023-02-03T00:34:06.535Z,99322.88
2023-02-03T00:36:33.712Z,99320.69
2023-02-03T00:39:01.506Z,99305.22
2023-02-03T00:41:31.787Z,99323.00
2023-02-03T00:43:58.973Z,99316.28
2023-02-03T00:46:26.149Z,99308.06
2023-02-03T00:48:53.256Z,99328.41
2023-02-03T00:51:21.518Z,99314.81
2023-02-03T00:53:49.389Z,99319.00
2023-02-03T00:56:16.403Z,99310.97
2023-02-03T00:58:44.955Z,99314.47
2023-02-03T01:01:12.039Z,99307.84
2023-02-03T01:03:39.622Z,99308.13
2023-02-03T01:06:19.356Z,99293.41
2023-02-03T01:08:47.605Z,99315.00
2023-02-03T01:11:21.136Z,99315.88
2023-02-03T01:13:49.139Z,99300.25
2023-02-03T01:16:20.227Z,99306.03
2023-02-03T01:18:47.770Z,99316.78
2023-02-03T01:21:17.907Z,99289.75
2023-02-03T01:23:45.530Z,99307.56
2023-02-03T01:26:15.561Z,99293.13
2023-02-03T01:28:43.152Z,99292.75
2023-02-03T01:31:15.644Z,99305.59
2023-02-03T01:33:46.365Z,99295.38
2023-02-03T01:36:14.493Z,99310.91
2023-02-03T01:38:42.191Z,99310.97
2023-02-03T01:41:13.063Z,99305.94
2023-02-03T01:43:43.571Z,99302.50
2023-02-03T01:46:13.244Z,99306.00
2023-02-03T01:48:40.320Z,99314.59
2023-02-03T01:51:07.615Z,99306.22
2023-02-03T01:53:34.764Z,99262.47
2023-02-03T01:56:05.010Z,99310.44
2023-02-03T01:58:36.080Z,99307.69
2023-02-03T02:01:03.145Z,99301.81
2023-02-03T02:03:38.576Z,99296.00
2023-02-03T02:06:08.437Z,99301.16
2023-02-03T02:08:38.842Z,99302.19
2023-02-03T02:11:07.265Z,99287.63
2023-02-03T02:13:35.726Z,99278.06
2023-02-03T02:16:08.760Z,99302.09
2023-02-03T02:19:10.755Z,99297.81
2023-02-03T02:21:56.763Z,99301.44
2023-02-03T02:24:32.624Z,99305.28
2023-02-03T02:27:09.519Z,99301.19
2023-02-03T02:29:55.423Z,99299.63
2023-02-03T02:32:37.703Z,99299.56
2023-02-03T02:35:12.769Z,99303.00
2023-02-03T02:38:13.949Z,99290.22
2023-02-03T02:40:40.841Z,99286.34
2023-02-03T02:43:27.582Z,99280.06
2023-02-03T02:46:09.351Z,99222.53
2023-02-03T02:48:43.713Z,99282.97
2023-02-03T02:51:14.597Z,99280.41
2023-02-03T02:53:49.359Z,99281.13
2023-02-03T02:56:18.957Z,99276.91
2023-02-03T02:58:49.728Z,99214.88
2023-02-03T03:01:17.387Z,99271.69
2023-02-03T03:03:45.335Z,99268.69
2023-02-03T03:06:19.461Z,99276.16
2023-02-03T03:09:01.449Z,99277.63
2023-02-03T03:11:32.057Z,99285.03
2023-02-03T03:14:02.464Z,99283.84
2023-02-03T03:16:36.117Z,99267.47
2023-02-03T03:19:10.304Z,99286.06
2023-02-03T03:21:47.929Z,99286.84
2023-02-03T03:24:22.303Z,99294.34
2023-02-03T03:26:55.176Z,99279.44
2023-02-03T03:29:26.807Z,99263.50
2023-02-03T03:31:53.933Z,99252.81
2023-02-03T03:34:21.193Z,99285.38
2023-02-03T03:36:56.748Z,99285.53
2023-02-03T03:39:36.047Z,99273.22
2023-02-03T03:42:41.561Z,99290.75
2023-02-03T03:45:33.197Z,99241.72
2023-02-03T03:48:06.531Z,99270.13
2023-02-03T03:50:38.343Z,99286.25
2023-02-03T03:53:08.250Z,99282.16
2023-02-03T03:55:38.365Z,99285.66
2023-02-03T03:58:10.309Z,99285.03
2023-02-03T04:00:40.009Z,99279.78
2023-02-03T04:03:13.961Z,99279.97
2023-02-03T04:05:43.037Z,99266.81
2023-02-03T04:08:10.038Z,99280.88
2023-02-03T04:10:40.265Z,99281.75
2023-02-03T04:13:09.347Z,99291.50
2023-02-03T04:15:37.030Z,99269.22
2023-02-03T04:18:04.729Z,99273.41
2023-02-03T04:20:32.920Z,99288.06
2023-02-03T04:22:59.955Z,99274.81
2023-02-03T04:25:27.127Z,99282.41
2023-02-03T04:27:55.120Z,99292.09
2023-02-03T04:30:22.193Z,99283.69
2023-02-03T04:32:49.583Z,99266.22
2023-02-03T04:35:16.963Z,99286.72
2023-02-03T04:37:44.044Z,99283.97
2023-02-03T04:40:11.900Z,99288.88
2023-02-03T04:42:40.473Z,99290.41
2023-02-03T04:45:10.352Z,99288.25
2023-02-03T04:47:37.812Z,99287.53
2023-02-03T04:50:05.051Z,99227.50
2023-02-03T04:52:32.172Z,99248.78
2023-02-03T04:54:59.176Z,99292.13
2023-02-03T04:57:26.118Z,99296.53
2023-02-03T04:59:53.082Z,99301.38
2023-02-03T05:02:20.074Z,99296.16
2023-02-03T05:04:46.981Z,99279.06
2023-02-03T05:07:13.922Z,99233.28
2023-02-03T05:09:40.865Z,99295.19
2023-02-03T05:12:07.913Z,99293.09
2023-02-03T05:14:34.839Z,99257.00
2023-02-03T05:17:01.814Z,99285.91
2023-02-03T05:19:28.878Z,99293.09
2023-02-03T05:21:55.835Z,99297.03
2023-02-03T05:24:22.825Z,99297.41
2023-02-03T05:26:49.798Z,99300.38
2023-02-03T05:29:16.802Z,99292.09
2023-02-03T05:31:43.780Z,99280.09
2023-02-03T05:34:10.788Z,99290.22
2023-02-03T05:36:37.773Z,99259.59
2023-02-03T05:39:04.805Z,99296.25
2023-02-03T05:41:50.364Z,99276.09
2023-02-03T05:44:17.309Z,99287.56
2023-02-03T05:46:44.266Z,99292.19
2023-02-03T05:49:11.261Z,99283.03
2023-02-03T05:51:39.616Z,99299.91
2023-02-03T05:54:07.225Z,99285.97
2023-02-03T05:56:34.274Z,99240.41
2023-02-03T05:59:01.251Z,99294.66
2023-02-03T06:01:28.280Z,99303.94
2023-02-03T06:03:55.388Z,99305.50
2023-02-03T06:06:22.870Z,99294.84
2023-02-03T06:08:52.406Z,99290.06
2023-02-03T06:11:19.353Z,99295.50
2023-02-03T06:13:47.632Z,99303.25
2023-02-03T06:16:14.722Z,99298.63
2023-02-03T06:18:41.865Z,99307.78
2023-02-03T06:21:08.818Z,99297.66
2023-02-03T06:23:35.800Z,99305.34
2023-02-03T06:26:02.757Z,99313.63
2023-02-03T06:28:30.378Z,99275.81
2023-02-03T06:30:57.380Z,99311.19
2023-02-03T06:33:24.499Z,99311.13
2023-02-03T06:35:51.454Z,99299.22
2023-02-03T06:38:18.388Z,99298.41
2023-02-03T06:40:48.054Z,99302.44
2023-02-03T06:43:15.587Z,99303.28
2023-02-03T06:45:46.376Z,99307.59
2023-02-03T06:48:14.025Z,99305.09
2023-02-03T06:50:41.434Z,99300.13
2023-02-03T06:53:08.498Z,99291.22
2023-02-03T06:55:35.476Z,99305.50
2023-02-03T06:58:02.500Z,99299.88
2023-02-03T07:00:29.795Z,99303.72
2023-02-03T07:02:58.376Z,99290.31
2023-02-03T07:05:28.041Z,99300.13
2023-02-03T07:07:55.291Z,99265.78
2023-02-03T07:10:22.272Z,99290.50
2023-02-03T07:12:50.921Z,99304.06
2023-02-03T07:15:18.026Z,99303.56
2023-02-03T07:17:47.050Z,99277.56
2023-02-03T07:20:14.161Z,99285.81
2023-02-03T07:22:43.954Z,99214.38
2023-02-03T07:25:10.993Z,99305.88
2023-02-03T07:27:38.003Z,99313.00
2023-02-03T07:30:05.399Z,99313.25
2023-02-03T07:32:33.849Z,99241.53
2023-02-03T07:35:01.461Z,99300.75
2023-02-03T07:37:28.852Z,99239.28
2023-02-03T07:39:55.839Z,99294.41
2023-02-03T07:42:23.002Z,99221.47
2023-02-03T07:44:51.774Z,99288.19
2023-02-03T07:47:18.693Z,99280.22
2023-02-03T07:49:45.668Z,99293.66
2023-02-03T07:52:12.645Z,99280.56
2023-02-03T07:54:39.578Z,99296.94
2023-02-03T07:57:06.549Z,99279.88
2023-02-03T07:59:33.812Z,99297.66
2023-02-03T08:02:00.885Z,99287.34
2023-02-03T08:04:28.143Z,99282.22
2023-02-03T08:06:55.256Z,99295.50
2023-02-03T08:09:22.182Z,99301.31
2023-02-03T08:11:49.182Z,99298.75
2023-02-03T08:14:16.266Z,99290.09
2023-02-03T08:16:43.316Z,99291.25
2023-02-03T08:19:11.122Z,99300.16
2023-02-03T08:21:38.397Z,99293.25
2023-02-03T08:24:05.884Z,99281.97
2023-02-03T08:26:32.864Z,99275.25
2023-02-03T08:28:59.927Z,99288.16
2023-02-03T08:31:27.004Z,99279.66
2023-02-03T08:33:54.257Z,99286.47
2023-02-03T08:36:21.332Z,99252.41
2023-02-03T08:38:48.362Z,99278.78
2023-02-03T08:41:18.299Z,99249.97
2023-02-03T08:43:45.670Z,99274.19
2023-02-03T08:46:13.453Z,99272.44
2023-02-03T08:48:41.009Z,99283.75
2023-02-03T08:51:13.196Z,99285.53
2023-02-03T08:53:40.184Z,99276.75
2023-02-03T08:56:08.993Z,99223.72
2023-02-03T08:58:36.772Z,99255.50
2023-02-03T09:01:11.982Z,99280.41
2023-02-03T09:03:39.859Z,99279.69
2023-02-03T09:06:08.153Z,99277.97
2023-02-03T09:08:35.165Z,99283.38
2023-02-03T09:11:02.309Z,99279.69
2023-02-03T09:13:29.322Z,99266.84
2023-02-03T09:15:59.601Z,99276.28
2023-02-03T09:18:26.660Z,99266.03
2023-02-03T09:21:03.826Z,99254.72
2023-02-03T09:23:31.048Z,99277.53
2023-02-03T09:26:09.966Z,99277.31
2023-02-03T09:28:37.820Z,99268.50
2023-02-03T09:31:11.158Z,99273.53
2023-02-03T09:33:39.040Z,99259.03
2023-02-03T09:36:07.228Z,99282.56
2023-02-03T09:38:35.051Z,99278.22
2023-02-03T09:41:12.874Z,99273.88
2023-02-03T09:44:00.994Z,99253.03
2023-02-03T09:46:33.802Z,99248.41
2023-02-03T09:49:33.094Z,99258.16
2023-02-03T09:52:09.075Z,99264.38
2023-02-03T09:55:13.247Z,99267.78
2023-02-03T09:57:51.837Z,99250.00
2023-02-03T10:00:27.838Z,99257.94
2023-02-03T10:03:22.946Z,99265.44
2023-02-03T10:06:01.967Z,99267.72
2023-02-03T10:09:07.695Z,99269.34
2023-02-03T10:12:05.307Z,99271.97
2023-02-03T10:14:44.367Z,99262.66
2023-02-03T10:17:30.642Z,99264.81
2023-02-03T10:20:27.366Z,99255.28
2023-02-03T10:22:59.981Z,99265.75
2023-02-03T10:25:59.105Z,99259.13
2023-02-03T10:28:39.613Z,99257.38
2023-02-03T10:31:17.823Z,99257.66
2023-02-03T10:33:45.051Z,99265.47
2023-02-03T10:36:22.535Z,99249.13
2023-02-03T10:39:07.597Z,99259.44
2023-02-03T10:41:35.144Z,99230.88
2023-02-03T10:44:06.863Z,99231.97
2023-02-03T10:46:37.945Z,99233.03
2023-02-03T10:49:05.047Z,99233.91
2023-02-03T10:51:43.335Z,99252.06
2023-02-03T10:54:34.501Z,99253.97
2023-02-03T10:57:12.870Z,99246.44
2023-02-03T10:59:45.525Z,99242.97
2023-02-03T11:02:31.204Z,99240.59
2023-02-03T11:05:16.616Z,99244.91
2023-02-03T11:07:44.647Z,99159.00
2023-02-03T11:10:29.664Z,99245.66
2023-02-03T11:13:13.259Z,99240.13
2023-02-03T11:16:06.139Z,99222.97
2023-02-03T11:18:36.275Z,99222.84
2023-02-03T11:21:15.403Z,99238.03
2023-02-03T11:24:02.068Z,99240.19
2023-02-03T11:26:52.022Z,99236.22
2023-02-03T11:29:30.841Z,99239.88
2023-02-03T11:32:01.934Z,99177.03
2023-02-03T11:34:35.468Z,99229.00
2023-02-03T11:37:41.506Z,99236.69
2023-02-03T11:40:08.556Z,99242.25
2023-02-03T11:42:38.034Z,99218.22
2023-02-03T11:45:18.249Z,99231.97
2023-02-03T11:47:54.102Z,99226.03
2023-02-03T11:50:30.803Z,99232.06
2023-02-03T11:53:14.914Z,99212.16
2023-02-03T11:56:00.107Z,99223.94
2023-02-03T11:58:45.724Z,99228.66
2023-02-03T12:01:43.786Z,99210.41
2023-02-03T12:04:47.871Z,99207.59
2023-02-03T12:07:36.609Z,99217.56
2023-02-03T12:10:13.543Z,99225.97
2023-02-03T12:12:43.241Z,99224.19
2023-02-03T12:15:22.313Z,99223.19
2023-02-03T12:18:31.181Z,99216.41
2023-02-03T12:21:19.640Z,99209.38
2023-02-03T12:24:13.410Z,99217.41
2023-02-03T12:26:52.378Z,99217.69
2023-02-03T12:29:32.490Z,99156.66
2023-02-03T12:32:23.694Z,99210.75
2023-02-03T12:35:02.180Z,99213.47
2023-02-03T12:37:56.074Z,99213.22
2023-02-03T12:40:49.151Z,99205.16
2023-02-03T12:43:30.877Z,99208.31
2023-02-03T12:46:21.002Z,99205.94
2023-02-03T12:49:04.506Z,99211.50
2023-02-03T12:51:41.481Z,99212.28
2023-02-03T12:54:29.832Z,99210.22
2023-02-03T12:57:03.510Z,99205.03
2023-02-03T12:59:32.583Z,99204.16
2023-02-03T13:02:13.929Z,99208.38
2023-02-03T13:04:57.023Z,99183.56
2023-02-03T13:07:47.777Z,99118.59
2023-02-03T13:10:33.268Z,99210.78
2023-02-03T13:13:01.237Z,99196.25
2023-02-03T13:15:37.507Z,99210.91
2023-02-03T13:18:33.068Z,99211.91
2023-02-03T13:21:00.314Z,99181.22
2023-02-03T13:23:27.885Z,99215.22
2023-02-03T13:26:11.140Z,99215.22
2023-02-03T13:29:04.364Z,99212.19
2023-02-03T13:31:37.288Z,99208.63
2023-02-03T13:34:16.139Z,99211.09
2023-02-03T13:37:14.050Z,99197.03
2023-02-03T13:39:47.611Z,99192.94
2023-02-03T13:42:29.864Z,99217.91
2023-02-03T13:45:31.076Z,99212.72
2023-02-03T13:48:22.292Z,99197.59
2023-02-03T13:51:14.892Z,99210.41
2023-02-03T13:53:45.177Z,99209.66
2023-02-03T13:56:20.480Z,99216.44
2023-02-03T13:59:07.372Z,99213.44
2023-02-03T14:01:38.560Z,99213.41
2023-02-03T14:04:09.153Z,99212.84
2023-02-03T14:06:36.273Z,99223.47
2023-02-03T14:09:24.247Z,99228.56
2023-02-03T14:11:52.789Z,99222.78
2023-02-03T14:14:20.868Z,99218.25
2023-02-03T14:16:54.792Z,99211.47
2023-02-03T14:19:21.906Z,99224.94
2023-02-03T14:22:02.961Z,99208.56
2023-02-03T14:24:39.202Z,99219.16
2023-02-03T14:27:21.431Z,99226.16
2023-02-03T14:30:07.243Z,99217.34
2023-02-03T14:33:01.256Z,99221.59
2023-02-03T14:35:30.986Z,99219.50
2023-02-03T14:38:02.867Z,99227.50
2023-02-03T14:40:50.110Z,99219.47
2023-02-03T14:43:26.214Z,99226.56
2023-02-03T14:46:36.713Z,99229.34
2023-02-03T14:49:12.308Z,99230.41
2023-02-03T14:51:58.161Z,99217.78
2023-02-03T14:54:49.469Z,99224.88
2023-02-03T14:57:45.102Z,99216.31
2023-02-03T15:00:22.536Z,99221.97
2023-02-03T15:03:10.885Z,99227.31
2023-02-03T15:05:45.083Z,99220.63
2023-02-03T15:08:36.422Z,99218.94
2023-02-03T15:11:44.002Z,99229.28
2023-02-03T15:14:22.415Z,99226.34
2023-02-03T15:17:20.489Z,99229.59
2023-02-03T15:19:47.515Z,99229.72
2023-02-03T15:22:29.312Z,99212.47
2023-02-03T15:24:59.226Z,99223.19
2023-02-03T15:27:31.106Z,99220.22
2023-02-03T15:30:02.172Z,99223.84
2023-02-03T15:32:39.861Z,99230.09
2023-02-03T15:35:12.768Z,99226.63
2023-02-03T15:37:54.080Z,99228.38
2023-02-03T15:40:26.186Z,99234.94
2023-02-03T15:42:59.252Z,99232.25
2023-02-03T15:45:31.216Z,99228.53
2023-02-03T15:48:06.255Z,99230.00
2023-02-03T15:50:41.845Z,99233.78
2023-02-03T15:53:27.654Z,99233.84
2023-02-03T15:55:59.332Z,99246.25
2023-02-03T15:58:33.220Z,99242.41
2023-02-03T16:01:05.869Z,99234.91
2023-02-03T16:03:40.490Z,99221.91
2023-02-03T16:06:38.095Z,99244.00
2023-02-03T16:09:29.171Z,99240.66
2023-02-03T16:12:22.524Z,99240.59
2023-02-03T16:14:53.442Z,99239.59
2023-02-03T16:17:26.951Z,99247.72
2023-02-03T16:20:12.389Z,99229.06
2023-02-03T16:22:42.151Z,99252.16
2023-02-03T16:25:18.632Z,99251.59
2023-02-03T16:27:46.642Z,99253.41
2023-02-03T16:30:32.030Z,99251.09
2023-02-03T16:33:35.615Z,99250.44
2023-02-03T16:36:29.305Z,99247.75
2023-02-03T16:39:14.748Z,99240.84
2023-02-03T16:42:00.308Z,99179.41
2023-02-03T16:44:55.582Z,99255.34
2023-02-03T16:47:46.217Z,99254.38
2023-02-03T16:50:43.256Z,99241.94
2023-02-03T16:53:15.799Z,99231.56
2023-02-03T16:55:46.168Z,99254.88
2023-02-03T16:58:13.225Z,99261.84
2023-02-03T17:00:42.638Z,99255.97
2023-02-03T17:03:17.579Z,99239.56
2023-02-03T17:05:47.874Z,99268.19
2023-02-03T17:08:17.523Z,99264.00
2023-02-03T17:10:45.501Z,99258.81
2023-02-03T17:13:12.657Z,99262.16
2023-02-03T17:15:44.891Z,99257.19
2023-02-03T17:18:13.050Z,99235.59
2023-02-03T17:20:41.219Z,99245.84
2023-02-03T17:23:08.854Z,99176.84
2023-02-03T17:25:38.348Z,99249.34
2023-02-03T17:28:11.134Z,99262.44
2023-02-03T17:30:38.262Z,99210.03
2023-02-03T17:33:13.272Z,99259.66
2023-02-03T17:35:45.554Z,99260.75
2023-02-03T17:38:14.620Z,99265.69
2023-02-03T17:54:48.071Z,99284.44
2023-02-03T17:57:15.418Z,99287.06
2023-02-03T17:59:42.376Z,99271.16
2023-02-03T18:02:10.364Z,99286.00
2023-02-03T18:04:37.350Z,99286.09
2023-02-03T18:07:04.388Z,99296.09
2023-02-03T18:09:39.551Z,99288.16
2023-02-03T18:12:07.700Z,99301.84
2023-02-03T18:14:37.990Z,99265.09
2023-02-03T18:17:05.030Z,99302.47
2023-02-03T18:19:33.406Z,99310.97
2023-02-03T18:22:01.295Z,99301.59
2023-02-03T18:24:30.014Z,99298.13
2023-02-03T18:27:00.473Z,99303.28
2023-02-03T18:29:28.611Z,99248.84
2023-02-03T18:31:58.406Z,99309.91
2023-02-03T18:34:26.482Z,99310.91
2023-02-03T18:36:53.477Z,99307.47
2023-02-03T18:39:20.637Z,99263.59
2023-02-03T18:41:47.701Z,99304.78
2023-02-03T18:44:14.627Z,99315.16
2023-02-03T18:46:41.636Z,99294.28
2023-02-03T18:49:09.557Z,99309.97
2023-02-03T18:51:36.624Z,99319.34
2023-02-03T18:54:04.309Z,99318.22
2023-02-03T18:56:35.392Z,99311.97
2023-02-03T18:59:10.817Z,99307.41
2023-02-03T19:01:39.176Z,99307.34
2023-02-03T19:04:06.650Z,99324.03
2023-02-03T19:06:34.982Z,99316.34
2023-02-03T19:09:03.859Z,99328.44
2023-02-03T19:11:30.788Z,99312.22
2023-02-03T19:13:57.841Z,99326.22
2023-02-03T19:16:24.811Z,99324.59
2023-02-03T19:18:51.899Z,99319.28
2023-02-03T19:21:18.853Z,99328.84
2023-02-03T19:23:45.813Z,99328.66
2023-02-03T19:26:13.030Z,99333.09
2023-02-03T19:28:40.972Z,99334.06
2023-02-03T19:31:11.045Z,99334.06
2023-02-03T19:33:38.124Z,99320.22
2023-02-03T19:36:06.082Z,99326.63
2023-02-03T19:38:33.397Z,99334.50
2023-02-03T19:41:03.858Z,99323.19
2023-02-03T19:43:31.310Z,99338.81
2023-02-03T19:45:59.043Z,99341.44
2023-02-03T19:48:26.226Z,99317.84
2023-02-03T19:50:53.219Z,99343.41
2023-02-03T19:53:21.689Z,99319.00
2023-02-03T19:55:48.754Z,99343.41
2023-02-03T19:58:15.819Z,99326.59
2023-02-03T20:00:43.565Z,99334.94
2023-02-03T20:03:11.227Z,99355.75
2023-02-03T20:05:38.663Z,99347.06
2023-02-03T20:08:06.095Z,99351.44
2023-02-03T20:10:33.701Z,99353.75
2023-02-03T20:13:01.202Z,99368.94
2023-02-03T20:15:28.476Z,99360.25
2023-02-03T20:17:56.001Z,99358.72
2023-02-03T20:20:23.253Z,99367.41
2023-02-03T20:22:50.556Z,99345.81
2023-02-03T20:25:18.464Z,99374.38
2023-02-03T20:27:45.946Z,99370.94
2023-02-03T20:30:13.730Z,99347.13
2023-02-03T20:32:40.775Z,99373.31
2023-02-03T20:35:08.824Z,99369.78
2023-02-03T20:37:36.443Z,99378.22
2023-02-03T20:40:12.832Z,99378.78
2023-02-03T20:42:40.192Z,99384.69
2023-02-03T20:45:13.354Z,99381.81
2023-02-03T20:47:40.554Z,99381.84
2023-02-03T20:50:18.438Z,99393.78
2023-02-03T20:52:50.018Z,99391.50
2023-02-03T20:55:22.809Z,99377.56
2023-02-03T20:57:51.746Z,99395.84
2023-02-03T21:00:25.841Z,99393.19
2023-02-03T21:03:12.166Z,99398.56
2023-02-03T21:05:43.293Z,99399.78
2023-02-03T21:08:20.452Z,99399.13
2023-02-03T21:10:50.065Z,99401.16
2023-02-03T21:13:18.363Z,99410.28
2023-02-03T21:15:51.835Z,99398.31
2023-02-03T21:18:40.569Z,99407.06
2023-02-03T21:21:25.148Z,99408.59
2023-02-03T21:23:54.963Z,99413.66
2023-02-03T21:26:23.770Z,99411.97
2023-02-03T21:28:53.602Z,99411.16
2023-02-03T21:31:25.136Z,99418.03
2023-02-03T21:33:54.273Z,99386.78
2023-02-03T21:36:24.273Z,99420.84
2023-02-03T21:38:57.429Z,99415.41
2023-02-03T21:42:00.606Z,99415.31
2023-02-03T21:44:38.385Z,99428.28
2023-02-03T21:47:31.175Z,99423.97
2023-02-03T21:50:52.217Z,99427.66
2023-02-03T21:54:41.796Z,99435.97
2023-02-03T21:57:15.009Z,99424.34
2023-02-03T21:59:46.648Z,99425.69
2023-02-03T22:02:56.798Z,99444.03
2023-02-03T22:05:23.835Z,99431.59
2023-02-03T22:07:50.827Z,99441.00
2023-02-03T22:10:17.848Z,99391.59
2023-02-03T22:12:44.800Z,99448.22
2023-02-03T22:15:12.425Z,99438.78
2023-02-03T22:17:39.398Z,99431.06
2023-02-03T22:20:06.848Z,99442.50
2023-02-03T22:22:34.031Z,99441.94
2023-02-03T22:25:01.287Z,99436.88
2023-02-03T22:27:28.363Z,99388.91
2023-02-03T22:29:56.640Z,99448.13
2023-02-03T22:32:23.761Z,99451.50
2023-02-03T22:34:50.873Z,99452.50
2023-02-03T22:37:17.780Z,99408.78
2023-02-03T22:39:44.985Z,99454.41
2023-02-03T22:42:19.037Z,99460.38
2023-02-03T22:44:46.509Z,99463.72
2023-02-03T22:47:14.152Z,99467.16
2023-02-03T22:49:41.086Z,99455.88
2023-02-03T22:52:08.054Z,99453.47
2023-02-03T22:54:37.447Z,99460.34
2023-02-03T22:57:05.219Z,99462.03
2023-02-03T22:59:32.163Z,99460.34
2023-02-03T23:01:59.086Z,99450.81
2023-02-03T23:04:26.150Z,99422.00
2023-02-03T23:06:53.186Z,99467.25
2023-02-03T23:09:20.133Z,99449.69
2023-02-03T23:11:47.203Z,99443.50
2023-02-03T23:14:16.794Z,99456.38
2023-02-03T23:16:43.981Z,99469.94
2023-02-03T23:19:10.998Z,99468.97
2023-02-03T23:21:37.898Z,99452.56
2023-02-03T23:24:05.198Z,99480.41
2023-02-03T23:26:32.340Z,99480.41
2023-02-03T23:28:59.314Z,99477.13
2023-02-03T23:31:26.368Z,99478.19
2023-02-03T23:34:12.028Z,99473.75
2023-02-03T23:36:38.952Z,99455.19
2023-02-03T23:39:06.716Z,99483.13
2023-02-03T23:41:33.711Z,99482.19
2023-02-03T23:44:03.437Z,99485.47
2023-02-03T23:46:30.543Z,99470.66
2023-02-03T23:48:57.530Z,99481.31
2023-02-03T23:51:24.577Z,99476.81
2023-02-03T23:53:51.516Z,99491.19
2023-02-03T23:56:18.427Z,99490.47
2023-02-03T23:58:45.341Z,99495.66
